Time;durP1;ratioP1;P1;durP2;ratioP2;P2;SDS_P1;SDS_P2;PMS_P1;PMS_P2;Temp;Humidity;BMP_temperature;BMP_pressure;BME280_temperature;BME280_humidity;BME280_pressure;Samples;Min_cycle;Max_cycle;Signal;HPM_P1;HPM_P2
2021/03/24 16:20:27;;;;;;;5.35;2.58;;;;;;;;;;5027193;28;20127;-64
2021/03/24 16:22:56;;;;;;;5.63;2.42;;;;;;;;;;5027226;28;20506;-64
2021/03/24 16:25:24;;;;;;;8.38;2.70;;;;;;;;;;5027084;28;20029;-68
2021/03/24 16:27:58;;;;;;;7.20;2.63;;;;;;;;;;4989336;28;20082;-65
2021/03/24 16:32:48;;;;;;;10.73;2.38;;;;;;;21.32;35.17;99799.38;5110820;27;20372;-62
2021/03/24 16:35:16;;;;;;;8.68;2.40;;;;;;;21.25;35.06;99806.34;5058270;27;108686;-69
2021/03/24 16:37:54;;;;;;;6.07;2.40;;;;;;;20.63;36.30;99801.88;5048302;28;20033;-69
2021/03/24 16:40:45;;;;;;;6.70;2.60;;;;;;;20.21;37.20;99798.06;5065761;28;20029;-69
2021/03/24 16:43:48;;;;;;;5.22;2.20;;;;;;;19.87;37.92;99798.25;5065748;28;20083;-69
2021/03/24 16:46:25;;;;;;;5.95;2.95;;;;;;;19.70;38.32;99789.75;5050319;28;20031;-69
2021/03/24 16:49:22;;;;;;;5.75;2.38;;;;;;;19.53;38.71;99799.09;5050306;28;20025;-69
2021/03/24 16:52:12;;;;;;;5.97;2.72;;;;;;;19.39;38.57;99798.16;5063266;28;20391;-69
2021/03/24 16:54:58;;;;;;;6.10;2.78;;;;;;;19.35;38.70;99797.13;5050428;28;20049;-69
2021/03/24 16:57:42;;;;;;;5.95;2.70;;;;;;;19.30;38.88;99789.84;5050162;28;20353;-69
2021/03/24 17:00:29;;;;;;;5.68;2.63;;;;;;;19.29;39.09;99795.53;5048796;28;20125;-69
2021/03/24 17:03:33;;;;;;;5.72;2.72;;;;;;;19.25;39.05;99791.78;5049996;28;20029;-69
2021/03/24 17:06:00;;;;;;;7.70;3.40;;;;;;;19.25;39.05;99786.38;5048297;28;20037;-69
2021/03/24 17:08:41;;;;;;;7.65;3.50;;;;;;;19.25;38.85;99794.50;5065213;28;20029;-69
2021/03/24 17:11:13;;;;;;;8.80;4.45;;;;;;;19.24;39.13;99798.31;5064888;28;20064;-68
2021/03/24 17:13:45;;;;;;;8.07;4.40;;;;;;;19.21;39.20;99796.97;5065020;28;20507;-69
2021/03/24 17:16:13;;;;;;;10.95;5.43;;;;;;;19.21;39.36;99798.88;5049662;28;20087;-68
2021/03/24 17:18:41;;;;;;;10.93;6.05;;;;;;;19.21;39.22;99796.16;5049735;28;20025;-69
2021/03/24 17:21:09;;;;;;;12.18;5.97;;;;;;;19.20;39.35;99791.84;5049606;28;20443;-69
2021/03/24 17:23:47;;;;;;;11.18;5.47;;;;;;;19.18;39.18;99792.94;5048292;28;20025;-68
2021/03/24 17:26:15;;;;;;;16.25;6.40;;;;;;;19.17;39.47;99793.22;5048303;28;20387;-69
2021/03/24 17:28:41;;;;;;;12.00;5.43;;;;;;;19.14;39.23;99786.44;5064754;28;20028;-68
2021/03/24 17:31:16;;;;;;;13.90;6.00;;;;;;;19.16;39.23;99789.69;5049249;28;20045;-69
2021/03/24 17:34:13;;;;;;;13.10;6.00;;;;;;;19.14;39.37;99797.28;5049391;28;20112;-68
2021/03/24 17:37:06;;;;;;;12.93;6.03;;;;;;;19.14;39.45;99797.28;5056314;28;20034;-69
2021/03/24 17:39:52;;;;;;;11.48;5.78;;;;;;;19.12;39.54;99794.06;5049374;28;20048;-68
2021/03/24 17:42:36;;;;;;;12.35;5.82;;;;;;;19.11;39.28;99791.63;5043502;28;20490;-68
2021/03/24 17:45:21;;;;;;;13.52;5.15;;;;;;;19.11;39.22;99794.34;5036056;28;20029;-69
2021/03/24 17:47:52;;;;;;;10.32;5.32;;;;;;;19.09;39.24;99794.63;5034526;28;20036;-69
2021/03/24 17:50:23;;;;;;;9.98;5.57;;;;;;;19.09;39.04;99788.38;5035813;28;20026;-69
2021/03/24 17:52:56;;;;;;;10.32;4.70;;;;;;;19.09;39.05;99791.91;5036053;28;20040;-69
2021/03/24 17:55:27;;;;;;;10.13;5.25;;;;;;;19.10;39.18;99804.41;5050487;28;20021;-69
2021/03/24 17:57:55;;;;;;;9.18;5.18;;;;;;;19.09;39.17;99794.63;5035769;28;20026;-69
2021/03/24 18:00:22;;;;;;;8.77;4.85;;;;;;;19.09;39.13;99791.91;5035710;28;20029;-69
2021/03/24 18:02:53;;;;;;;9.32;5.15;;;;;;;19.09;39.15;99797.34;5050920;28;20152;-69
2021/03/24 18:05:22;;;;;;;10.63;4.95;;;;;;;19.06;39.06;99800.63;5035638;28;20032;-69
2021/03/24 18:07:48;;;;;;;8.15;4.47;;;;;;;19.05;39.01;99806.38;5050802;28;20064;-69
2021/03/24 18:10:13;;;;;;;9.35;4.88;;;;;;;19.06;39.08;99810.69;5050933;28;20029;-69
2021/03/24 18:12:49;;;;;;;10.65;5.07;;;;;;;19.06;39.16;99799.84;5035458;28;20068;-69
2021/03/24 18:15:27;;;;;;;9.55;4.65;;;;;;;19.05;39.05;99807.19;5050769;28;20090;-69
2021/03/24 18:18:17;;;;;;;8.32;4.80;;;;;;;19.05;38.93;99809.09;5035529;28;20100;-68
2021/03/24 18:21:01;;;;;;;8.15;4.38;;;;;;;19.03;39.07;99812.09;5035482;28;20026;-69
2021/03/24 18:23:31;;;;;;;8.73;4.82;;;;;;;19.02;39.11;99815.91;5035344;28;20053;-69
2021/03/24 18:26:10;;;;;;;8.55;4.80;;;;;;;19.01;38.95;99814.25;5050436;28;20064;-69
2021/03/24 18:28:40;;;;;;;14.13;4.83;;;;;;;19.02;39.13;99815.91;5049289;28;20056;-69
2021/03/24 18:31:18;;;;;;;10.35;4.40;;;;;;;19.01;38.95;99819.69;5049938;28;20298;-69
2021/03/24 18:33:45;;;;;;;6.50;4.03;;;;;;;19.04;39.09;99813.69;5034256;28;20555;-69
2021/03/24 18:36:15;;;;;;;7.22;4.60;;;;;;;19.01;39.00;99821.59;5050093;28;20061;-68
2021/03/24 18:38:47;;;;;;;8.63;4.07;;;;;;;19.02;38.95;99823.22;5049505;28;20095;-68
2021/03/24 18:41:15;;;;;;;7.32;4.30;;;;;;;19.00;39.10;99818.09;5049817;28;20036;-68
2021/03/24 18:43:42;;;;;;;6.57;4.00;;;;;;;18.99;39.42;99827.31;5033575;28;20450;-69
2021/03/24 18:46:08;;;;;;;8.05;4.30;;;;;;;18.98;39.14;99825.69;5050046;28;20124;-69
2021/03/24 18:48:41;;;;;;;11.50;4.65;;;;;;;18.99;39.35;99816.44;5049885;28;20025;-67
2021/03/24 18:51:29;;;;;;;9.38;4.50;;;;;;;19.01;39.34;99818.88;5033623;28;20039;-68
2021/03/24 18:54:03;;;;;;;9.73;4.30;;;;;;;18.99;39.25;99830.03;5033757;28;20388;-69
2021/03/24 18:56:41;;;;;;;10.05;4.50;;;;;;;18.96;39.28;99822.44;5033284;28;20025;-69
2021/03/24 18:59:16;;;;;;;8.73;4.47;;;;;;;18.98;39.47;99830.34;5034469;28;20369;-69
2021/03/24 19:01:42;;;;;;;7.22;4.35;;;;;;;18.98;39.20;99824.91;5034480;28;20025;-68
2021/03/24 19:04:12;;;;;;;9.10;4.43;;;;;;;18.98;39.22;99824.91;5033215;28;20495;-69
2021/03/24 19:06:50;;;;;;;;;;;;;;;18.97;39.27;99834.97;5053539;28;20094;-68
2021/03/24 19:09:35;;;;;;;9.50;4.25;;;;;;;18.96;39.37;99839.56;5064094;28;19920;-68
2021/03/24 19:12:32;;;;;;;8.50;4.03;;;;;;;18.98;39.47;99839.28;5031457;28;75881;-68
2021/03/24 19:14:58;;;;;;;6.57;4.03;;;;;;;18.98;39.53;99841.19;5029869;28;20042;-69
2021/03/24 19:17:30;;;;;;;9.18;4.20;;;;;;;18.97;39.33;99843.09;5049592;28;20037;-69
2021/03/24 19:19:56;;;;;;;7.68;4.22;;;;;;;19.00;39.29;99844.44;5034042;28;20017;-70
2021/03/24 19:22:32;;;;;;;8.63;4.10;;;;;;;19.00;39.41;99839.81;5034050;28;20040;-68
2021/03/24 19:25:22;;;;;;;7.65;4.10;;;;;;;18.99;39.09;99843.63;5033045;28;20033;-69
2021/03/24 19:27:55;;;;;;;8.07;4.20;;;;;;;18.98;39.23;99836.56;5046805;28;77384;-68
2021/03/24 19:30:32;;;;;;;7.40;4.00;;;;;;;19.00;39.07;99844.44;5051043;28;20033;-68
2021/03/24 19:33:17;;;;;;;6.40;3.70;;;;;;;19.00;39.15;99845.25;5052869;28;20017;-68
2021/03/24 19:35:44;;;;;;;7.53;3.97;;;;;;;18.98;39.04;99844.72;5053921;28;20167;-70
2021/03/24 19:38:28;;;;;;;6.80;3.63;;;;;;;18.99;39.01;99838.19;5053806;28;20021;-68
2021/03/24 19:41:20;;;;;;;7.38;3.90;;;;;;;19.01;39.18;99838.72;5053860;28;20533;-70
2021/03/24 19:43:52;;;;;;;8.23;4.35;;;;;;;18.98;39.20;99850.16;5052857;28;20037;-69
2021/03/24 19:46:25;;;;;;;6.45;3.80;;;;;;;19.00;39.12;99842.53;5051894;28;20041;-69
2021/03/24 19:48:57;;;;;;;7.55;4.53;;;;;;;19.01;39.09;99841.44;5052283;28;20017;-69
2021/03/24 19:51:23;;;;;;;7.63;4.00;;;;;;;19.00;39.08;99844.44;5053050;28;20066;-69
2021/03/24 19:53:52;;;;;;;8.52;3.80;;;;;;;19.01;39.03;99838.72;5052295;28;20040;-68
2021/03/24 19:56:30;;;;;;;7.18;4.10;;;;;;;18.98;38.96;99844.72;5068584;28;20034;-69
2021/03/24 19:58:58;;;;;;;6.65;4.20;;;;;;;19.00;39.17;99845.25;5067911;28;20085;-70
2021/03/24 20:01:45;;;;;;;9.57;4.15;;;;;;;18.96;39.18;99847.69;5068002;28;20044;-69
2021/03/24 20:04:18;;;;;;;6.38;3.90;;;;;;;18.99;39.26;99848.25;5068598;28;20035;-68
2021/03/24 20:06:54;;;;;;;8.15;4.22;;;;;;;18.96;39.40;99847.69;5067457;28;20075;-68
2021/03/24 20:09:34;;;;;;;7.88;3.80;;;;;;;18.96;39.06;99849.63;5053244;28;20545;-68
2021/03/24 20:12:11;;;;;;;5.97;3.88;;;;;;;18.97;39.04;99845.81;5052573;28;20075;-68
2021/03/24 20:14:39;;;;;;;5.57;3.70;;;;;;;18.98;39.34;99846.63;5053023;28;20450;-69
2021/03/24 20:17:16;;;;;;;6.20;3.75;;;;;;;18.96;39.22;99846.91;5068045;28;20124;-69
2021/03/24 20:19:42;;;;;;;6.40;3.83;;;;;;;18.98;39.32;99846.63;5068648;28;20029;-69
2021/03/24 20:22:08;;;;;;;6.78;3.80;;;;;;;18.98;39.35;99843.91;5051485;28;20548;-69
2021/03/24 20:24:33;;;;;;;6.13;3.50;;;;;;;18.95;39.33;99839.84;5051893;28;20025;-70
2021/03/24 20:26:59;;;;;;;6.45;3.70;;;;;;;18.98;39.27;99842.00;5068184;28;20394;-70
2021/03/24 20:29:27;;;;;;;6.40;3.97;;;;;;;18.99;39.20;99843.63;5051812;28;20340;-70
2021/03/24 20:32:11;;;;;;;6.85;3.83;;;;;;;18.96;39.07;99844.97;5052377;28;20066;-70
2021/03/24 20:35:15;;;;;;;6.18;3.80;;;;;;;18.96;39.15;99844.97;5052940;28;20025;-70
2021/03/24 20:37:49;;;;;;;5.55;3.58;;;;;;;18.97;39.21;99845.81;5046909;28;20122;-70
2021/03/24 20:40:19;;;;;;;6.03;3.60;;;;;;;18.94;39.07;99851.78;5048092;28;20056;-69
2021/03/24 20:42:48;;;;;;;7.18;4.00;;;;;;;18.96;39.06;99849.63;5048087;28;20025;-70
2021/03/24 20:45:21;;;;;;;6.47;3.83;;;;;;;18.95;39.09;99848.00;5032581;28;20029;-69
2021/03/24 20:47:46;;;;;;;5.70;3.55;;;;;;;18.95;39.07;99848.00;5033187;28;20091;-70
2021/03/24 20:50:28;;;;;;;6.82;3.67;;;;;;;18.96;39.22;99849.63;5034217;28;20037;-69
2021/03/24 20:52:54;;;;;;;5.40;3.38;;;;;;;18.93;39.04;99850.19;5067637;28;20063;-70
2021/03/24 20:55:19;;;;;;;6.25;3.50;;;;;;;18.94;38.92;99846.38;5067729;28;20025;-69
2021/03/24 20:57:45;;;;;;;5.47;3.42;;;;;;;18.93;38.92;99842.84;5052766;28;20017;-70
2021/03/24 21:00:20;;;;;;;6.50;3.72;;;;;;;18.93;39.17;99839.31;5051070;28;20051;-69
2021/03/24 21:02:45;;;;;;;5.93;3.63;;;;;;;18.92;39.06;99845.84;5052978;28;20105;-70
2021/03/24 21:05:12;;;;;;;5.38;3.45;;;;;;;18.92;39.12;99843.13;5067727;28;20048;-70
2021/03/24 21:07:37;;;;;;;5.38;3.65;;;;;;;18.91;39.09;99833.34;5052676;28;20071;-70
2021/03/24 21:10:03;;;;;;;6.45;3.95;;;;;;;18.91;39.20;99838.78;5052137;28;20025;-69
2021/03/24 21:12:29;;;;;;;5.07;3.70;;;;;;;18.90;38.91;99837.97;5052564;28;20025;-70
2021/03/24 21:14:54;;;;;;;4.80;3.33;;;;;;;18.91;38.88;99844.22;5052929;28;20021;-70
2021/03/24 21:17:31;;;;;;;6.85;3.72;;;;;;;18.91;38.99;99836.88;5068462;28;20487;-70
2021/03/24 21:19:57;;;;;;;5.30;3.47;;;;;;;18.91;39.08;99836.88;5071704;28;20475;-70
2021/03/24 21:22:22;;;;;;;6.20;3.55;;;;;;;18.89;39.26;99840.97;5055764;28;20033;-70
2021/03/24 21:24:47;;;;;;;5.95;3.63;;;;;;;18.89;38.72;99835.53;5056271;28;20028;-70
2021/03/24 21:27:13;;;;;;;6.30;3.95;;;;;;;18.89;39.03;99830.09;5056134;28;20045;-70
2021/03/24 21:29:38;;;;;;;6.30;3.10;;;;;;;18.89;39.19;99832.81;5056352;28;20067;-70
2021/03/24 21:32:04;;;;;;;5.03;3.50;;;;;;;18.89;39.02;99830.09;5055505;28;20048;-70
2021/03/24 21:34:30;;;;;;;6.43;3.58;;;;;;;18.88;39.08;99831.22;5054863;28;20029;-70
2021/03/24 21:36:55;;;;;;;6.03;3.25;;;;;;;18.88;38.96;99833.94;5055687;28;20037;-70
2021/03/24 21:39:21;;;;;;;6.15;3.65;;;;;;;18.87;39.13;99829.56;5056049;28;20522;-70
2021/03/24 21:41:46;;;;;;;6.78;3.42;;;;;;;18.88;38.92;99836.66;5055450;28;20037;-71
2021/03/24 21:44:27;;;;;;;7.32;3.92;;;;;;;18.89;39.11;99833.63;5056030;28;20024;-71
2021/03/24 21:46:53;;;;;;;5.15;3.50;;;;;;;18.88;39.09;99826.59;5055583;28;20044;-69
2021/03/24 21:49:20;;;;;;;6.78;3.88;;;;;;;18.90;39.02;99829.03;5054570;28;20025;-69
2021/03/24 21:51:46;;;;;;;5.97;3.50;;;;;;;18.90;38.70;99834.47;5053998;28;20123;-71
2021/03/24 21:54:13;;;;;;;6.07;3.80;;;;;;;18.89;38.71;99827.38;5055639;28;20174;-69
2021/03/24 21:57:02;;;;;;;4.90;3.47;;;;;;;18.90;38.96;99820.88;5055409;28;20106;-69
2021/03/24 21:59:31;;;;;;;5.68;3.28;;;;;;;18.89;38.93;99822.75;5055626;28;20048;-69
2021/03/24 22:02:15;;;;;;;5.47;3.40;;;;;;;18.86;38.81;99823.34;5055329;28;20037;-69
2021/03/24 22:04:40;;;;;;;6.00;3.50;;;;;;;18.85;38.74;99818.22;5055604;28;20475;-69
2021/03/24 22:07:06;;;;;;;6.20;3.70;;;;;;;18.87;38.98;99824.16;5055051;28;20083;-68
2021/03/24 22:09:32;;;;;;;5.63;3.58;;;;;;;18.86;38.83;99817.09;5055383;28;20082;-68
2021/03/24 22:11:57;;;;;;;5.80;3.50;;;;;;;18.86;38.97;99822.53;5054899;28;20041;-69
2021/03/24 22:14:34;;;;;;;5.78;3.60;;;;;;;18.86;38.74;99819.81;5037484;28;20037;-69
2021/03/24 22:17:09;;;;;;;5.75;3.80;;;;;;;18.84;38.66;99814.66;5069975;28;20029;-69
2021/03/24 22:19:34;;;;;;;4.88;3.45;;;;;;;18.83;38.85;99818.47;5055238;28;20032;-69
2021/03/24 22:22:00;;;;;;;5.85;3.53;;;;;;;18.83;38.76;99813.03;5054712;28;20052;-69
2021/03/24 22:24:26;;;;;;;6.20;3.53;;;;;;;18.80;38.98;99815.53;5055356;28;20033;-69
2021/03/24 22:26:58;;;;;;;5.70;3.53;;;;;;;18.82;38.98;99816.88;5054837;28;20037;-68
2021/03/24 22:30:08;;;;;;;6.68;3.53;;;;;;;18.81;38.75;99814.41;5070426;28;20021;-69
2021/03/24 22:32:55;;;;;;;4.90;3.30;;;;;;;18.78;39.12;99815.81;5041388;28;20077;-69
2021/03/24 22:35:32;;;;;;;5.72;3.50;;;;;;;18.77;38.97;99818.78;5033438;28;20287;-69
2021/03/24 22:38:05;;;;;;;4.88;3.22;;;;;;;18.77;38.79;99813.34;5033772;28;20361;-69
2021/03/24 22:40:31;;;;;;;5.80;3.55;;;;;;;18.76;38.97;99823.41;5033594;28;20104;-71
2021/03/24 22:42:57;;;;;;;4.95;3.53;;;;;;;18.76;38.69;99817.97;5033677;28;20571;-68
2021/03/24 22:45:23;;;;;;;6.07;3.53;;;;;;;18.75;38.96;99814.47;5034511;28;20095;-69
2021/03/24 22:48:21;;;;;;;5.30;3.38;;;;;;;18.75;38.97;99817.19;5050254;28;20025;-69
2021/03/24 22:50:53;;;;;;;5.03;3.28;;;;;;;18.71;38.91;99807.94;5034038;28;20034;-70
2021/03/24 22:53:41;;;;;;;5.95;3.63;;;;;;;18.70;39.02;99814.47;5034913;28;20025;-69
2021/03/24 22:56:54;;;;;;;6.38;3.75;;;;;;;18.70;38.97;99814.47;5014886;28;20492;-69
2021/03/24 22:59:28;;;;;;;5.55;3.30;;;;;;;18.70;39.13;99809.03;4990671;28;20396;-69
2021/03/24 23:01:54;;;;;;;5.05;3.25;;;;;;;18.69;38.86;99815.53;5034289;28;20091;-68
2021/03/24 23:04:35;;;;;;;4.90;3.28;;;;;;;18.67;39.06;99809.59;5034537;28;20034;-69
2021/03/24 23:07:01;;;;;;;7.47;3.25;;;;;;;18.69;39.14;99812.03;5032835;28;20087;-68
2021/03/24 23:09:27;;;;;;;5.88;3.67;;;;;;;18.67;39.01;99809.59;5049774;28;20460;-68
2021/03/24 23:12:01;;;;;;;6.38;3.33;;;;;;;18.67;39.01;99809.59;5033945;28;20132;-70
2021/03/24 23:14:50;;;;;;;5.15;3.35;;;;;;;18.67;38.96;99806.88;5049017;28;20026;-69
2021/03/24 23:17:32;;;;;;;4.70;3.30;;;;;;;18.64;38.85;99804.72;5032582;28;20042;-69
2021/03/24 23:20:20;;;;;;;5.00;3.13;;;;;;;18.64;39.01;99809.34;5033197;28;20026;-69
2021/03/24 23:22:46;;;;;;;4.68;3.13;;;;;;;18.63;38.74;99808.53;5046027;28;20049;-69
2021/03/24 23:25:14;;;;;;;6.43;3.72;;;;;;;18.64;38.98;99810.16;5016017;28;20389;-69
2021/03/24 23:27:39;;;;;;;6.07;3.35;;;;;;;18.62;38.88;99801.50;5034095;28;20032;-69
2021/03/24 23:30:07;;;;;;;4.57;3.25;;;;;;;18.62;39.17;99803.38;5033393;28;20021;-68
2021/03/24 23:32:33;;;;;;;4.80;3.17;;;;;;;18.61;39.03;99799.84;5033957;28;20472;-69
2021/03/24 23:34:58;;;;;;;4.90;3.35;;;;;;;18.61;38.87;99799.84;5049304;28;20033;-69
2021/03/24 23:37:25;;;;;;;5.88;3.50;;;;;;;18.61;38.58;99799.06;5033399;28;20040;-69
2021/03/24 23:39:51;;;;;;;5.45;3.22;;;;;;;18.60;38.65;99798.25;5032201;28;20029;-69
2021/03/24 23:42:16;;;;;;;5.55;3.58;;;;;;;18.61;39.11;99791.72;5033361;28;20388;-69
2021/03/24 23:44:42;;;;;;;4.53;3.13;;;;;;;18.61;38.71;99799.84;5049415;28;20025;-69
2021/03/24 23:47:07;;;;;;;5.03;3.10;;;;;;;18.61;38.67;99799.06;5032045;28;20038;-69
2021/03/24 23:49:33;;;;;;;5.07;3.50;;;;;;;18.60;38.66;99792.81;5033822;28;20021;-69
2021/03/24 23:51:58;;;;;;;5.05;3.40;;;;;;;18.62;38.64;99795.22;5033226;28;20483;-69
2021/03/24 23:54:24;;;;;;;4.88;3.47;;;;;;;18.60;38.71;99798.25;5033626;28;20021;-69
2021/03/24 23:56:51;;;;;;;5.50;3.10;;;;;;;18.58;38.68;99789.56;5033225;28;20048;-69
2021/03/24 23:59:19;;;;;;;4.88;3.20;;;;;;;18.59;38.73;99795.81;5033502;28;20033;-69
